createdAt,value
2022-07-28T00:01:07.171Z,80.00
2022-07-28T00:03:33.950Z,80.20
2022-07-28T00:06:00.774Z,80.70
2022-07-28T00:08:27.597Z,80.50
2022-07-28T00:10:54.424Z,80.70
2022-07-28T00:13:22.358Z,81.10
2022-07-28T00:15:49.298Z,81.10
2022-07-28T00:18:16.207Z,81.20
2022-07-28T00:20:43.012Z,81.40
2022-07-28T00:23:09.937Z,81.60
2022-07-28T00:25:36.773Z,81.60
2022-07-28T00:28:03.710Z,81.80
2022-07-28T00:30:30.683Z,82.50
2022-07-28T00:32:57.567Z,81.70
2022-07-28T00:35:30.266Z,82.10
2022-07-28T00:37:57.560Z,82.20
2022-07-28T00:40:44.352Z,82.60
2022-07-28T00:43:11.198Z,82.40
2022-07-28T00:45:38.113Z,82.60
2022-07-28T00:48:05.307Z,82.30
2022-07-28T00:50:32.433Z,82.60
2022-07-28T00:53:00.166Z,82.50
2022-07-28T00:55:27.149Z,82.40
2022-07-28T00:57:54.214Z,82.60
2022-07-28T01:00:21.291Z,82.70
2022-07-28T01:02:48.442Z,83.00
2022-07-28T01:05:15.960Z,82.90
2022-07-28T01:08:26.710Z,82.90
2022-07-28T01:11:00.986Z,82.90
2022-07-28T01:13:55.474Z,83.00
2022-07-28T01:16:22.614Z,83.50
2022-07-28T01:19:11.123Z,83.50
2022-07-28T01:21:41.764Z,83.30
2022-07-28T01:24:31.315Z,83.30
2022-07-28T01:27:10.545Z,83.70
2022-07-28T01:30:01.562Z,83.90
2022-07-28T01:32:43.022Z,84.20
2022-07-28T01:35:29.153Z,84.10
2022-07-28T01:38:01.076Z,84.00
2022-07-28T01:40:33.392Z,84.40
2022-07-28T01:43:05.618Z,84.20
2022-07-28T01:45:38.388Z,84.30
2022-07-28T01:48:06.662Z,84.10
2022-07-28T01:50:35.139Z,84.10
2022-07-28T01:53:02.900Z,84.90
2022-07-28T01:55:31.746Z,84.40
2022-07-28T01:57:59.931Z,84.20
2022-07-28T02:00:28.040Z,84.30
2022-07-28T02:02:57.169Z,84.60
2022-07-28T02:05:26.036Z,84.20
2022-07-28T02:07:55.583Z,84.30
2022-07-28T02:10:24.424Z,84.30
2022-07-28T02:12:52.919Z,84.30
2022-07-28T02:15:22.096Z,84.70
2022-07-28T02:17:51.892Z,84.70
2022-07-28T02:20:19.702Z,85.00
2022-07-28T02:22:51.370Z,84.40
2022-07-28T02:25:20.476Z,84.70
2022-07-28T02:27:57.335Z,84.80
2022-07-28T02:30:46.830Z,84.60
2022-07-28T02:33:58.101Z,84.50
2022-07-28T02:36:26.814Z,84.80
2022-07-28T02:38:56.361Z,84.60
2022-07-28T02:41:27.107Z,84.50
2022-07-28T02:43:57.929Z,84.40
2022-07-28T02:46:29.091Z,84.30
2022-07-28T02:49:02.664Z,84.40
2022-07-28T02:51:30.551Z,84.70
2022-07-28T02:53:58.279Z,85.30
2022-07-28T02:56:26.387Z,85.20
2022-07-28T02:58:54.344Z,85.00
2022-07-28T03:01:22.814Z,85.00
2022-07-28T03:03:50.531Z,85.00
2022-07-28T03:06:26.500Z,85.30
2022-07-28T03:08:57.301Z,85.00
2022-07-28T03:11:24.675Z,85.30
2022-07-28T03:13:51.529Z,85.40
2022-07-28T03:16:18.542Z,85.90
2022-07-28T03:18:45.500Z,86.80
2022-07-28T03:21:12.318Z,86.50
2022-07-28T03:23:43.876Z,86.20
2022-07-28T03:26:19.393Z,86.10
2022-07-28T03:28:47.495Z,86.10
2022-07-28T03:31:15.383Z,85.90
2022-07-28T03:33:42.529Z,85.60
2022-07-28T03:36:13.568Z,86.20
2022-07-28T03:38:51.963Z,86.90
2022-07-28T03:41:19.521Z,86.40
2022-07-28T03:43:47.737Z,86.60
2022-07-28T03:46:14.765Z,87.00
2022-07-28T03:48:41.709Z,87.00
2022-07-28T03:51:09.351Z,86.90
2022-07-28T03:53:36.774Z,87.70
2022-07-28T03:56:03.999Z,87.40
2022-07-28T03:58:31.108Z,87.30
2022-07-28T04:00:58.587Z,87.40
2022-07-28T04:03:43.271Z,87.40
2022-07-28T04:06:15.266Z,87.40
2022-07-28T04:08:43.179Z,88.10
2022-07-28T04:11:10.062Z,88.50
2022-07-28T04:13:37.357Z,89.00
2022-07-28T04:16:05.830Z,89.10
2022-07-28T04:18:32.756Z,89.00
2022-07-28T04:20:59.710Z,89.50
2022-07-28T04:23:26.559Z,89.40
2022-07-28T04:25:53.499Z,89.50
2022-07-28T04:28:20.474Z,90.10
2022-07-28T04:30:47.436Z,90.20
2022-07-28T04:33:14.411Z,90.10
2022-07-28T04:35:41.346Z,90.20
2022-07-28T04:38:08.461Z,90.00
2022-07-28T04:40:35.336Z,90.30
2022-07-28T04:43:03.847Z,90.50
2022-07-28T04:45:31.054Z,90.60
2022-07-28T04:47:57.900Z,90.70
2022-07-28T04:50:25.375Z,90.40
2022-07-28T04:52:58.840Z,90.50
2022-07-28T04:55:26.422Z,90.50
2022-07-28T04:57:53.285Z,90.70
2022-07-28T05:00:22.113Z,90.70
2022-07-28T05:02:50.270Z,90.70
2022-07-28T05:05:17.442Z,91.00
2022-07-28T05:07:44.428Z,90.80
2022-07-28T05:10:12.806Z,91.10
2022-07-28T05:12:39.821Z,91.10
2022-07-28T05:15:08.312Z,91.20
2022-07-28T05:17:36.923Z,91.10
2022-07-28T05:20:06.165Z,91.10
2022-07-28T05:22:47.467Z,91.20
2022-07-28T05:25:19.712Z,91.10
2022-07-28T05:27:47.741Z,91.40
2022-07-28T05:30:15.667Z,91.30
2022-07-28T05:32:43.187Z,91.40
2022-07-28T05:35:10.240Z,92.00
2022-07-28T05:37:38.063Z,92.10
2022-07-28T05:40:10.384Z,91.80
2022-07-28T05:42:37.422Z,91.90
2022-07-28T05:45:16.467Z,91.70
2022-07-28T05:47:53.026Z,91.60
2022-07-28T05:50:25.202Z,91.70
2022-07-28T05:52:52.448Z,92.00
2022-07-28T05:55:19.712Z,92.20
2022-07-28T05:57:46.849Z,92.20
2022-07-28T06:00:16.994Z,92.70
2022-07-28T06:02:49.250Z,92.60
2022-07-28T06:05:18.319Z,92.60
2022-07-28T06:07:46.906Z,92.80
2022-07-28T06:10:15.685Z,92.90
2022-07-28T06:12:48.410Z,93.00
2022-07-28T06:15:21.507Z,92.90
2022-07-28T06:17:52.375Z,93.10
2022-07-28T06:20:22.357Z,93.20
2022-07-28T06:22:51.530Z,93.20
2022-07-28T06:25:23.386Z,93.30
2022-07-28T06:27:53.052Z,93.40
2022-07-28T06:30:20.385Z,93.10
2022-07-28T06:32:47.945Z,93.30
2022-07-28T06:35:16.895Z,93.50
2022-07-28T06:37:48.355Z,93.60
2022-07-28T06:40:17.199Z,93.70
2022-07-28T06:42:45.410Z,93.70
2022-07-28T06:45:19.643Z,93.80
2022-07-28T06:47:48.548Z,93.60
2022-07-28T06:50:25.865Z,93.70
2022-07-28T06:52:59.002Z,93.70
2022-07-28T06:55:34.838Z,93.70
2022-07-28T06:58:04.086Z,93.70
2022-07-28T07:00:31.343Z,93.60
2022-07-28T07:02:58.412Z,93.90
2022-07-28T07:05:26.114Z,93.50
2022-07-28T07:07:52.991Z,93.70
2022-07-28T07:10:20.098Z,93.30
2022-07-28T07:12:47.020Z,93.00
2022-07-28T07:15:14.027Z,93.30
2022-07-28T07:17:42.048Z,93.40
2022-07-28T07:20:10.155Z,93.30
2022-07-28T07:22:42.882Z,93.00
2022-07-28T07:25:11.265Z,93.20
2022-07-28T07:27:38.334Z,93.20
2022-07-28T07:30:07.087Z,93.30
2022-07-28T07:32:34.137Z,93.50
2022-07-28T07:35:01.007Z,92.90
2022-07-28T07:37:28.114Z,93.10
2022-07-28T07:39:54.951Z,93.00
2022-07-28T07:42:24.724Z,92.90
2022-07-28T07:44:51.974Z,92.70
2022-07-28T07:47:19.033Z,92.60
2022-07-28T07:49:46.545Z,92.60
2022-07-28T07:52:14.260Z,92.70
2022-07-28T07:54:41.866Z,92.60
2022-07-28T07:57:09.389Z,92.80
2022-07-28T07:59:36.333Z,92.70
2022-07-28T08:02:03.336Z,92.40
2022-07-28T08:04:30.401Z,92.50
2022-07-28T08:06:57.315Z,92.30
2022-07-28T08:09:25.025Z,92.10
2022-07-28T08:11:51.940Z,92.20
2022-07-28T08:14:19.043Z,92.00
2022-07-28T08:16:46.025Z,92.00
2022-07-28T08:19:12.892Z,91.90
2022-07-28T08:21:40.955Z,91.80
2022-07-28T08:24:08.152Z,91.70
2022-07-28T08:26:35.025Z,91.50
2022-07-28T08:29:01.899Z,91.40
2022-07-28T08:31:28.850Z,91.40
2022-07-28T08:33:56.663Z,91.20
2022-07-28T08:36:23.632Z,91.10
2022-07-28T08:38:50.506Z,91.00
2022-07-28T08:41:22.753Z,90.70
2022-07-28T08:43:52.893Z,90.60
2022-07-28T08:46:21.317Z,90.60
2022-07-28T08:48:49.444Z,90.20
2022-07-28T08:51:17.070Z,90.20
2022-07-28T08:53:44.328Z,90.40
2022-07-28T08:56:16.096Z,90.20
2022-07-28T08:58:43.403Z,89.60
2022-07-28T09:01:11.049Z,89.80
2022-07-28T09:03:39.273Z,90.00
2022-07-28T09:06:07.337Z,90.00
2022-07-28T09:08:34.415Z,90.30
2022-07-28T09:11:01.573Z,89.00
2022-07-28T09:13:28.759Z,89.40
2022-07-28T09:15:55.817Z,89.30
2022-07-28T09:18:23.127Z,89.80
2022-07-28T09:20:50.053Z,89.00
2022-07-28T09:23:42.901Z,88.40
2022-07-28T09:26:11.813Z,88.50
2022-07-28T09:28:55.340Z,88.10
2022-07-28T09:31:24.003Z,88.80
2022-07-28T09:34:02.563Z,87.50
2022-07-28T09:36:30.971Z,86.80
2022-07-28T09:38:59.178Z,87.10
2022-07-28T09:41:26.149Z,87.10
2022-07-28T09:43:55.150Z,86.70
2022-07-28T09:46:25.229Z,86.50
2022-07-28T09:48:54.370Z,86.50
2022-07-28T09:51:24.820Z,86.10
2022-07-28T09:53:52.408Z,86.50
2022-07-28T09:56:19.495Z,86.30
2022-07-28T09:58:58.103Z,86.30
2022-07-28T10:01:29.213Z,86.10
2022-07-28T10:04:04.081Z,86.30
2022-07-28T10:06:33.634Z,85.80
2022-07-28T10:09:03.007Z,84.40
2022-07-28T10:11:30.671Z,84.50
2022-07-28T10:14:07.364Z,85.00
2022-07-28T10:16:52.683Z,85.50
2022-07-28T10:19:19.559Z,84.20
2022-07-28T10:21:48.589Z,84.50
2022-07-28T10:24:27.270Z,84.20
2022-07-28T10:26:57.141Z,84.60
2022-07-28T10:29:24.883Z,83.60
2022-07-28T10:31:54.180Z,83.50
2022-07-28T10:34:44.989Z,83.70
2022-07-28T10:37:19.059Z,83.20
2022-07-28T10:39:58.661Z,83.90
2022-07-28T10:42:26.015Z,83.50
2022-07-28T10:44:54.620Z,83.40
2022-07-28T10:47:23.447Z,83.80
2022-07-28T10:49:51.273Z,83.30
2022-07-28T10:52:45.726Z,82.50
2022-07-28T10:55:23.194Z,81.90
2022-07-28T10:58:10.850Z,81.70
2022-07-28T11:00:56.127Z,80.70
2022-07-28T11:03:44.488Z,80.20
2022-07-28T11:06:29.571Z,78.60
2022-07-28T11:08:59.280Z,78.80
2022-07-28T11:11:51.986Z,79.90
2022-07-28T11:14:22.965Z,80.50
2022-07-28T11:17:15.952Z,80.30
2022-07-28T11:19:55.826Z,79.40
2022-07-28T11:22:34.260Z,78.70
2022-07-28T11:25:19.021Z,79.40
2022-07-28T11:27:50.273Z,78.40
2022-07-28T11:30:27.622Z,77.90
2022-07-28T11:32:54.426Z,78.60
2022-07-28T11:35:28.825Z,78.20
2022-07-28T11:38:02.052Z,78.10
2022-07-28T11:40:46.495Z,78.80
2022-07-28T11:43:26.633Z,78.10
2022-07-28T11:46:11.103Z,78.80
2022-07-28T11:48:40.757Z,80.50
2022-07-28T11:51:07.650Z,79.50
2022-07-28T11:53:38.574Z,79.20
2022-07-28T11:56:07.827Z,79.10
2022-07-28T11:58:35.103Z,78.10
2022-07-28T12:01:18.105Z,77.70
2022-07-28T12:03:49.403Z,77.30
2022-07-28T12:06:28.397Z,78.10
2022-07-28T12:08:58.684Z,78.50
2022-07-28T12:11:27.678Z,79.00
2022-07-28T12:14:02.366Z,78.60
2022-07-28T12:16:34.764Z,78.20
2022-07-28T12:19:03.615Z,78.10
2022-07-28T12:21:45.714Z,78.70
2022-07-28T12:24:16.696Z,78.80
2022-07-28T12:26:49.687Z,78.60
2022-07-28T12:29:19.801Z,78.70
2022-07-28T12:31:56.014Z,77.30
2022-07-28T12:34:26.656Z,78.30
2022-07-28T12:37:02.401Z,78.10
2022-07-28T12:39:30.945Z,77.90
2022-07-28T12:42:07.254Z,77.80
2022-07-28T12:44:37.996Z,77.40
2022-07-28T12:47:08.200Z,77.40
2022-07-28T12:49:37.144Z,78.10
2022-07-28T12:52:17.845Z,76.80
2022-07-28T12:54:52.078Z,76.90
2022-07-28T12:57:50.901Z,78.30
2022-07-28T13:00:23.959Z,77.40
2022-07-28T13:02:55.934Z,78.30
2022-07-28T13:05:53.563Z,78.30
2022-07-28T13:08:21.010Z,77.30
2022-07-28T13:10:52.373Z,77.40
2022-07-28T13:13:23.735Z,77.30
2022-07-28T13:16:14.567Z,76.20
2022-07-28T13:18:53.507Z,77.10
2022-07-28T13:21:56.953Z,75.40
2022-07-28T13:24:24.427Z,76.10
2022-07-28T13:26:51.429Z,77.10
2022-07-28T13:29:18.298Z,76.90
2022-07-28T13:31:45.311Z,76.60
2022-07-28T13:34:12.594Z,77.00
2022-07-28T13:36:40.023Z,76.10
2022-07-28T13:39:07.701Z,76.10
2022-07-28T13:41:57.719Z,76.70
2022-07-28T13:44:21.674Z,75.10
2022-07-28T13:46:50.103Z,76.10
2022-07-28T13:49:17.333Z,75.50
2022-07-28T13:51:48.824Z,74.80
2022-07-28T13:54:19.231Z,73.70
2022-07-28T13:57:05.556Z,74.00
2022-07-28T13:59:32.622Z,74.60
2022-07-28T14:02:03.296Z,74.40
2022-07-28T14:04:30.122Z,74.20
2022-07-28T14:06:57.097Z,74.90
2022-07-28T14:09:23.958Z,73.60
2022-07-28T14:11:53.630Z,72.70
2022-07-28T14:14:25.299Z,73.50
2022-07-28T14:16:54.427Z,74.00
2022-07-28T14:19:38.704Z,73.80
2022-07-28T14:22:12.765Z,73.40
2022-07-28T14:24:41.642Z,73.80
2022-07-28T14:27:10.398Z,73.10
2022-07-28T14:29:38.068Z,72.70
2022-07-28T14:32:05.388Z,72.50
2022-07-28T14:34:32.196Z,72.50
2022-07-28T14:37:05.803Z,71.80
2022-07-28T14:39:36.556Z,72.50
2022-07-28T14:42:04.191Z,72.90
2022-07-28T14:44:31.094Z,72.80
2022-07-28T14:46:58.111Z,72.60
2022-07-28T14:49:25.115Z,72.00
2022-07-28T14:51:52.004Z,72.20
2022-07-28T14:54:19.206Z,72.30
2022-07-28T14:56:46.304Z,71.80
2022-07-28T14:59:13.184Z,70.30
2022-07-28T15:01:40.431Z,71.50
2022-07-28T15:04:07.597Z,71.70
2022-07-28T15:06:34.458Z,71.40
2022-07-28T15:09:01.853Z,69.90
2022-07-28T15:11:28.651Z,70.00
2022-07-28T15:13:55.465Z,70.50
2022-07-28T15:16:22.346Z,70.60
2022-07-28T15:18:52.223Z,69.90
2022-07-28T15:21:19.732Z,70.00
2022-07-28T15:23:46.665Z,70.70
2022-07-28T15:26:14.004Z,70.30
2022-07-28T15:28:41.061Z,69.50
2022-07-28T15:31:08.463Z,68.70
2022-07-28T15:33:47.638Z,68.60
2022-07-28T15:36:15.797Z,68.90
2022-07-28T15:38:47.159Z,68.80
2022-07-28T15:41:15.158Z,68.20
2022-07-28T15:43:42.423Z,68.00
2022-07-28T15:46:11.806Z,68.00
2022-07-28T15:48:41.383Z,67.80
2022-07-28T15:51:09.063Z,67.20
2022-07-28T15:53:36.695Z,68.10
2022-07-28T15:56:04.756Z,67.40
2022-07-28T15:58:31.905Z,67.30
2022-07-28T16:01:01.028Z,67.20
2022-07-28T16:03:29.649Z,66.10
2022-07-28T16:05:56.687Z,67.50
2022-07-28T16:08:23.575Z,68.40
2022-07-28T16:10:52.482Z,66.90
2022-07-28T16:13:35.535Z,67.80
2022-07-28T16:16:05.423Z,68.40
2022-07-28T16:18:32.225Z,68.10
2022-07-28T16:20:59.142Z,68.40
2022-07-28T16:23:26.006Z,67.60
2022-07-28T16:25:52.843Z,68.70
2022-07-28T16:28:19.712Z,69.60
2022-07-28T16:30:47.938Z,70.00
2022-07-28T16:33:14.943Z,69.60
2022-07-28T16:35:41.745Z,67.60
2022-07-28T16:38:08.599Z,68.80
2022-07-28T16:40:35.552Z,67.80
2022-07-28T16:43:06.899Z,67.10
2022-07-28T16:45:35.505Z,68.20
2022-07-28T16:48:03.731Z,68.50
2022-07-28T16:50:31.585Z,68.40
2022-07-28T16:52:59.558Z,68.90
2022-07-28T16:55:27.020Z,68.90
2022-07-28T16:57:54.011Z,68.80
2022-07-28T17:00:21.627Z,69.60
2022-07-28T17:02:48.475Z,69.80
2022-07-28T17:05:15.517Z,69.30
2022-07-28T17:07:45.563Z,69.80
2022-07-28T17:10:14.857Z,68.80
2022-07-28T17:12:41.762Z,70.30
2022-07-28T17:15:19.945Z,69.90
2022-07-28T17:17:51.011Z,70.50
2022-07-28T17:20:18.903Z,70.30
2022-07-28T17:22:45.868Z,70.40
2022-07-28T17:25:35.582Z,70.10
2022-07-28T17:27:59.841Z,70.70
2022-07-28T17:30:29.825Z,70.30
2022-07-28T17:32:58.931Z,70.70
2022-07-28T17:35:31.469Z,70.50
2022-07-28T17:38:01.921Z,70.50
2022-07-28T17:40:28.783Z,70.40
2022-07-28T17:42:55.740Z,70.90
2022-07-28T17:45:23.908Z,70.20
2022-07-28T17:47:51.229Z,69.70
2022-07-28T17:50:18.399Z,69.50
2022-07-28T17:52:46.541Z,69.30
2022-07-28T17:55:37.380Z,69.70
2022-07-28T17:58:33.840Z,69.90
2022-07-28T18:01:09.886Z,69.60
2022-07-28T18:03:56.963Z,70.30
2022-07-28T18:06:32.780Z,71.10
2022-07-28T18:09:05.532Z,71.10
2022-07-28T18:11:57.165Z,71.70
2022-07-28T18:14:26.412Z,71.60
2022-07-28T18:16:53.283Z,71.80
2022-07-28T18:19:20.619Z,72.60
2022-07-28T18:21:47.445Z,72.00
2022-07-28T18:24:14.534Z,71.80
2022-07-28T18:26:41.570Z,71.90
2022-07-28T18:29:08.552Z,72.20
2022-07-28T18:31:35.520Z,72.00
2022-07-28T18:34:02.397Z,72.30
2022-07-28T18:36:29.968Z,72.10
2022-07-28T18:38:56.826Z,71.60
2022-07-28T18:41:23.786Z,72.30
2022-07-28T18:43:50.726Z,71.80
2022-07-28T18:46:17.631Z,72.10
2022-07-28T18:48:44.631Z,71.70
2022-07-28T18:51:14.919Z,71.80
2022-07-28T18:53:42.263Z,72.10
2022-07-28T18:56:09.103Z,72.20
2022-07-28T18:58:36.019Z,72.80
2022-07-28T19:01:02.841Z,72.40
2022-07-28T19:03:31.633Z,72.00
2022-07-28T19:05:58.443Z,72.30
2022-07-28T19:08:25.314Z,71.80
2022-07-28T19:10:52.185Z,72.30
2022-07-28T19:13:18.937Z,71.90
2022-07-28T19:15:45.786Z,71.90
2022-07-28T19:18:12.593Z,72.50
2022-07-28T19:20:40.124Z,72.50
2022-07-28T19:23:07.053Z,72.00
2022-07-28T19:25:36.182Z,72.20
2022-07-28T19:28:04.106Z,72.50
2022-07-28T19:30:32.227Z,71.40
2022-07-28T19:32:59.985Z,72.20
2022-07-28T19:35:27.047Z,72.10
2022-07-28T19:37:55.410Z,71.20
2022-07-28T19:40:25.139Z,69.50
2022-07-28T19:42:52.162Z,69.40
2022-07-28T19:45:19.032Z,69.40
2022-07-28T19:47:45.884Z,69.00
2022-07-28T19:50:16.878Z,68.70
2022-07-28T19:52:43.861Z,69.00
2022-07-28T19:55:10.681Z,69.00
2022-07-28T19:57:42.243Z,68.70
2022-07-28T20:00:10.446Z,68.10
2022-07-28T20:02:40.754Z,68.40
2022-07-28T20:05:08.433Z,68.20
2022-07-28T20:07:35.639Z,68.00
2022-07-28T20:10:02.493Z,68.00
2022-07-28T20:12:32.894Z,68.10
2022-07-28T20:15:01.182Z,67.80
2022-07-28T20:17:37.906Z,67.80
2022-07-28T20:20:08.650Z,68.00
2022-07-28T20:22:35.809Z,67.70
2022-07-28T20:25:02.847Z,67.70
2022-07-28T20:27:29.703Z,67.50
2022-07-28T20:29:58.814Z,67.40
2022-07-28T20:32:25.970Z,67.60
2022-07-28T20:34:52.983Z,67.50
2022-07-28T20:37:36.877Z,67.50
2022-07-28T20:40:08.889Z,67.50
2022-07-28T20:42:36.761Z,67.20
2022-07-28T20:45:04.594Z,67.10
2022-07-28T20:47:32.859Z,67.10
2022-07-28T20:50:00.318Z,67.40
2022-07-28T20:52:27.555Z,67.10
2022-07-28T20:54:55.148Z,67.00
2022-07-28T20:57:22.849Z,67.20
2022-07-28T20:59:51.899Z,67.90
2022-07-28T21:02:20.026Z,67.30
2022-07-28T21:04:50.148Z,67.20
2022-07-28T21:08:00.172Z,67.00
2022-07-28T21:10:06.636Z,67.10
2022-07-28T21:12:34.461Z,67.10
2022-07-28T21:15:01.368Z,67.00
2022-07-28T21:17:28.240Z,67.40
2022-07-28T21:19:55.643Z,67.10
2022-07-28T21:22:23.128Z,67.40
2022-07-28T21:24:55.132Z,67.30
2022-07-28T21:27:23.149Z,67.60
2022-07-28T21:32:17.774Z,67.60
2022-07-28T21:34:44.685Z,67.60
2022-07-28T21:37:12.883Z,67.60
2022-07-28T21:39:40.286Z,67.90
2022-07-28T21:42:08.896Z,67.70
2022-07-28T21:44:39.007Z,68.50
2022-07-28T21:47:05.921Z,69.40
2022-07-28T21:49:32.903Z,70.40
2022-07-28T21:51:59.994Z,71.00
2022-07-28T21:54:27.093Z,72.20
2022-07-28T21:56:54.177Z,73.90
2022-07-28T21:59:21.090Z,75.20
2022-07-28T22:01:48.042Z,76.40
2022-07-28T22:04:15.393Z,78.20
2022-07-28T22:06:45.986Z,79.80
2022-07-28T22:09:13.770Z,80.40
2022-07-28T22:11:40.707Z,82.40
2022-07-28T22:14:07.526Z,84.50
2022-07-28T22:16:34.391Z,86.20
2022-07-28T22:19:01.252Z,87.00
2022-07-28T22:21:28.110Z,87.00
2022-07-28T22:23:54.954Z,88.90
2022-07-28T22:26:21.832Z,88.50
2022-07-28T22:28:48.645Z,89.50
2022-07-28T22:31:15.518Z,89.90
2022-07-28T22:33:42.406Z,90.30
2022-07-28T22:36:09.537Z,90.40
2022-07-28T22:38:36.733Z,90.40
2022-07-28T22:41:03.883Z,90.50
2022-07-28T22:43:33.908Z,90.80
2022-07-28T22:46:01.139Z,90.80
2022-07-28T22:48:28.520Z,90.40
2022-07-28T22:50:55.426Z,90.40
2022-07-28T22:53:22.288Z,89.90
2022-07-28T22:55:49.258Z,89.30
2022-07-28T22:58:16.140Z,90.00
2022-07-28T23:00:43.599Z,90.50
2022-07-28T23:03:13.018Z,90.60
2022-07-28T23:05:40.418Z,90.70
2022-07-28T23:08:07.327Z,91.30
2022-07-28T23:10:34.671Z,91.20
2022-07-28T23:13:02.038Z,91.60
2022-07-28T23:15:41.269Z,91.90
2022-07-28T23:18:14.091Z,92.40
2022-07-28T23:20:42.038Z,92.80
2022-07-28T23:23:10.204Z,92.80
2022-07-28T23:25:39.631Z,92.90
2022-07-28T23:28:07.387Z,93.20
2022-07-28T23:30:34.483Z,93.00
2022-07-28T23:33:01.486Z,93.40
2022-07-28T23:35:28.333Z,93.20
2022-07-28T23:37:55.336Z,93.10
2022-07-28T23:40:22.603Z,93.50
2022-07-28T23:42:49.546Z,94.00
2022-07-28T23:45:16.344Z,93.70
2022-07-28T23:47:43.251Z,94.00
2022-07-28T23:50:10.266Z,93.70
2022-07-28T23:52:37.136Z,93.80
2022-07-28T23:55:05.154Z,93.90
2022-07-28T23:57:32.032Z,93.80
